Terminal Aerodrome Forecast
Issued by NWS

Home | Current Version | Previous Version | Text Only | Print | Product List | Glossary On
Versions: 1 2 3 4 5 6 7 8 9 10 11 12 13 14 15 16 17 18
365
FTUS44 KBMX 291231 AAA
TAFEET
TAF AMD
KEET 291231Z 2913/3012 20003KT P6SM SCT005 BKN020
     FM291500 22006KT P6SM VCSH BKN035
     FM291800 25007KT P6SM VCTS BKN050CB
     FM300200 00000KT P6SM SCT025=

USA.gov is the U.S. government's official web portal to all federal, state and local government web resources and services.